ソウル/仁川 の空港の天気 - METARとTAF

仁川国際空港 ( RKSI / ICN ) - 韓国 仁川広域市 (ソウル特別市近郊)
飛行場実況気象(Metar)
観測時間05/25 12:00 KST (05/25 03:00 UTC)
風向・風速南 3m/s
視程10km以上
天気現象
なし
気温22℃
湿度29%
気圧1008hPa
METARRKSI 250300Z 17006KT 130V260 CAVOK 22/03 Q1008 NOSIG
過去の天気等 Google飛行場航空写真 Wunderground天気予報

過去48時間のMETAR

飛行場予報(TAF)
発表時間: 5/25 08:00 KST (5/24 23:00 UTC)
予報対象時間: 25日9時 KST ~ 26日15時 KST
風向・風速南 5m/s
視程7,000m
なし
25日12時 KST ~ 25日13時 KST に徐々に
風向・風速西南西 4m/s
25日16時 KST ~ 25日19時 KST に一時的に
風向・風速西北西 4m/s
25日20時 KST ~ 25日21時 KST に徐々に
風向・風速北東 3m/s
26日3時 KST ~ 26日6時 KST に一時的に
視程4,200m
天気現象もや
26日12時 KST ~ 26日13時 KST に徐々に
風向・風速西北西 5m/s
TAF RKSI 242300Z 2500/2606 18010KT 7000 NSC TX22/2505Z TN13/2521Z TX26/2605Z
BECMG 2503/2504 24008KT
TEMPO 2507/2510 30008KT
BECMG 2511/2512 05005KT
TEMPO 2518/2521 4200 BR
BECMG 2603/2604 29010KT